sensor_id;sensor_type;location;lat;lon;timestamp;pressure;altitude;pressure_sealevel;temperature;humidity
18858;BME280;9558;50.178;8.370;2024-01-06T00:01:50;96976.63;;;2.97;100.00
18858;BME280;9558;50.178;8.370;2024-01-06T00:04:37;96964.38;;;3.01;100.00
18858;BME280;9558;50.178;8.370;2024-01-06T00:07:24;96969.16;;;3.04;100.00
18858;BME280;9558;50.178;8.370;2024-01-06T00:10:12;96974.75;;;3.07;100.00
18858;BME280;9558;50.178;8.370;2024-01-06T00:12:59;96972.06;;;3.09;100.00
18858;BME280;9558;50.178;8.370;2024-01-06T00:15:45;96970.94;;;3.11;100.00
18858;BME280;9558;50.178;8.370;2024-01-06T00:18:32;96980.69;;;3.16;100.00
18858;BME280;9558;50.178;8.370;2024-01-06T00:21:19;96978.75;;;3.18;100.00
18858;BME280;9558;50.178;8.370;2024-01-06T00:24:05;96983.41;;;3.23;100.00
18858;BME280;9558;50.178;8.370;2024-01-06T00:26:54;96985.16;;;3.22;100.00
18858;BME280;9558;50.178;8.370;2024-01-06T00:29:40;96991.22;;;3.21;100.00
18858;BME280;9558;50.178;8.370;2024-01-06T00:32:27;96980.53;;;3.26;100.00
18858;BME280;9558;50.178;8.370;2024-01-06T00:35:14;96988.69;;;3.29;100.00
18858;BME280;9558;50.178;8.370;2024-01-06T00:38:01;96990.28;;;3.31;100.00
18858;BME280;9558;50.178;8.370;2024-01-06T00:40:48;96994.91;;;3.27;100.00
18858;BME280;9558;50.178;8.370;2024-01-06T00:43:36;96996.50;;;3.28;100.00
18858;BME280;9558;50.178;8.370;2024-01-06T00:46:23;96994.13;;;3.35;100.00
18858;BME280;9558;50.178;8.370;2024-01-06T00:49:09;96993.63;;;3.31;100.00
18858;BME280;9558;50.178;8.370;2024-01-06T00:51:56;96998.59;;;3.33;100.00
18858;BME280;9558;50.178;8.370;2024-01-06T00:54:43;96997.81;;;3.32;100.00
18858;BME280;9558;50.178;8.370;2024-01-06T00:57:30;97001.81;;;3.35;100.00
18858;BME280;9558;50.178;8.370;2024-01-06T01:00:18;96996.69;;;3.35;100.00
18858;BME280;9558;50.178;8.370;2024-01-06T01:03:05;97003.09;;;3.39;100.00
18858;BME280;9558;50.178;8.370;2024-01-06T01:05:52;96999.56;;;3.40;100.00
18858;BME280;9558;50.178;8.370;2024-01-06T01:08:38;97006.28;;;3.41;100.00
18858;BME280;9558;50.178;8.370;2024-01-06T01:11:25;97007.88;;;3.42;100.00
18858;BME280;9558;50.178;8.370;2024-01-06T01:14:12;97005.00;;;3.45;100.00
18858;BME280;9558;50.178;8.370;2024-01-06T01:17:00;97004.84;;;3.46;100.00
18858;BME280;9558;50.178;8.370;2024-01-06T01:19:47;97008.84;;;3.49;100.00
18858;BME280;9558;50.178;8.370;2024-01-06T01:22:33;97012.84;;;3.52;100.00
18858;BME280;9558;50.178;8.370;2024-01-06T01:25:20;97003.09;;;3.55;100.00
18858;BME280;9558;50.178;8.370;2024-01-06T01:28:07;97014.28;;;3.54;100.00
18858;BME280;9558;50.178;8.370;2024-01-06T01:30:54;97013.31;;;3.55;100.00
18858;BME280;9558;50.178;8.370;2024-01-06T01:33:42;97016.38;;;3.59;100.00
18858;BME280;9558;50.178;8.370;2024-01-06T01:36:29;97005.00;;;3.61;100.00
18858;BME280;9558;50.178;8.370;2024-01-06T01:39:15;97011.09;;;3.60;100.00
18858;BME280;9558;50.178;8.370;2024-01-06T01:42:02;97022.63;;;3.65;100.00
18858;BME280;9558;50.178;8.370;2024-01-06T01:44:49;97015.56;;;3.67;100.00
18858;BME280;9558;50.178;8.370;2024-01-06T01:47:36;97015.25;;;3.70;100.00
18858;BME280;9558;50.178;8.370;2024-01-06T01:50:24;97014.63;;;3.76;100.00
18858;BME280;9558;50.178;8.370;2024-01-06T01:53:13;97017.19;;;3.76;100.00
18858;BME280;9558;50.178;8.370;2024-01-06T01:56:00;97016.34;;;3.67;100.00
18858;BME280;9558;50.178;8.370;2024-01-06T01:58:49;97015.56;;;3.67;100.00
18858;BME280;9558;50.178;8.370;2024-01-06T02:01:36;97022.91;;;3.70;100.00
18858;BME280;9558;50.178;8.370;2024-01-06T02:04:23;97021.97;;;3.71;100.00
18858;BME280;9558;50.178;8.370;2024-01-06T02:07:11;97031.09;;;3.73;100.00
18858;BME280;9558;50.178;8.370;2024-01-06T02:09:58;97021.31;;;3.77;100.00
18858;BME280;9558;50.178;8.370;2024-01-06T02:12:44;97012.19;;;3.74;100.00
18858;BME280;9558;50.178;8.370;2024-01-06T02:15:31;97014.63;;;3.76;100.00
18858;BME280;9558;50.178;8.370;2024-01-06T02:18:18;97018.44;;;3.80;100.00
18858;BME280;9558;50.178;8.370;2024-01-06T02:21:06;97026.59;;;3.84;100.00
18858;BME280;9558;50.178;8.370;2024-01-06T02:23:54;97034.13;;;3.85;100.00
18858;BME280;9558;50.178;8.370;2024-01-06T02:26:41;97029.34;;;3.90;100.00
18858;BME280;9558;50.178;8.370;2024-01-06T02:29:27;97042.44;;;3.95;100.00
18858;BME280;9558;50.178;8.370;2024-01-06T02:32:14;97041.94;;;4.00;100.00
18858;BME280;9558;50.178;8.370;2024-01-06T02:35:01;97038.91;;;4.05;100.00
18858;BME280;9558;50.178;8.370;2024-01-06T02:37:47;97045.31;;;4.09;100.00
18858;BME280;9558;50.178;8.370;2024-01-06T02:40:35;97050.09;;;4.12;100.00
18858;BME280;9558;50.178;8.370;2024-01-06T02:43:22;97051.38;;;4.16;100.00
18858;BME280;9558;50.178;8.370;2024-01-06T02:46:09;97057.78;;;4.20;100.00
18858;BME280;9558;50.178;8.370;2024-01-06T02:48:56;97064.16;;;4.24;100.00
18858;BME280;9558;50.178;8.370;2024-01-06T02:51:43;97066.09;;;4.22;100.00
18858;BME280;9558;50.178;8.370;2024-01-06T02:54:29;97069.94;;;4.26;100.00
18858;BME280;9558;50.178;8.370;2024-01-06T02:57:17;97076.66;;;4.27;100.00
18858;BME280;9558;50.178;8.370;2024-01-06T03:00:05;97068.97;;;4.27;100.00
18858;BME280;9558;50.178;8.370;2024-01-06T03:02:52;97072.16;;;4.29;100.00
18858;BME280;9558;50.178;8.370;2024-01-06T03:05:39;97068.31;;;4.33;100.00
18858;BME280;9558;50.178;8.370;2024-01-06T03:08:25;97067.84;;;4.30;100.00
18858;BME280;9558;50.178;8.370;2024-01-06T03:11:12;97071.50;;;4.36;100.00
18858;BME280;9558;50.178;8.370;2024-01-06T03:14:01;97072.66;;;4.33;100.00
18858;BME280;9558;50.178;8.370;2024-01-06T03:16:48;97078.91;;;4.30;100.00
18858;BME280;9558;50.178;8.370;2024-01-06T03:19:35;97086.25;;;4.33;100.00
18858;BME280;9558;50.178;8.370;2024-01-06T03:22:21;97074.88;;;4.36;100.00
18858;BME280;9558;50.178;8.370;2024-01-06T03:25:08;97067.19;;;4.36;100.00
18858;BME280;9558;50.178;8.370;2024-01-06T03:27:55;97068.66;;;4.39;100.00
18858;BME280;9558;50.178;8.370;2024-01-06T03:30:43;97070.06;;;4.41;100.00
18858;BME280;9558;50.178;8.370;2024-01-06T03:33:30;97074.72;;;4.46;100.00
18858;BME280;9558;50.178;8.370;2024-01-06T03:36:16;97072.16;;;4.46;100.00
18858;BME280;9558;50.178;8.370;2024-01-06T03:39:04;97072.00;;;4.47;100.00
18858;BME280;9558;50.178;8.370;2024-01-06T03:41:50;97072.94;;;4.46;100.00
18858;BME280;9558;50.178;8.370;2024-01-06T03:44:37;97066.69;;;4.49;100.00
18858;BME280;9558;50.178;8.370;2024-01-06T03:47:25;97071.50;;;4.52;100.00
18858;BME280;9558;50.178;8.370;2024-01-06T03:50:12;97069.88;;;4.51;100.00
18858;BME280;9558;50.178;8.370;2024-01-06T03:52:59;97079.34;;;4.50;100.00
18858;BME280;9558;50.178;8.370;2024-01-06T03:55:46;97084.47;;;4.50;100.00
18858;BME280;9558;50.178;8.370;2024-01-06T03:58:33;97084.47;;;4.50;100.00
18858;BME280;9558;50.178;8.370;2024-01-06T04:01:20;97092.16;;;4.50;100.00
18858;BME280;9558;50.178;8.370;2024-01-06T04:04:08;97084.91;;;4.54;100.00
18858;BME280;9558;50.178;8.370;2024-01-06T04:06:55;97096.94;;;4.54;100.00
18858;BME280;9558;50.178;8.370;2024-01-06T04:09:42;97093.25;;;4.56;100.00
18858;BME280;9558;50.178;8.370;2024-01-06T04:12:29;97100.28;;;4.54;100.00
18858;BME280;9558;50.178;8.370;2024-01-06T04:15:16;97098.38;;;4.56;100.00
18858;BME280;9558;50.178;8.370;2024-01-06T04:18:03;97098.38;;;4.56;100.00
18858;BME280;9558;50.178;8.370;2024-01-06T04:20:52;97088.94;;;4.57;100.00
18858;BME280;9558;50.178;8.370;2024-01-06T04:23:39;97096.78;;;4.55;100.00
18858;BME280;9558;50.178;8.370;2024-01-06T04:26:26;97102.53;;;4.57;100.00
18858;BME280;9558;50.178;8.370;2024-01-06T04:29:12;97100.78;;;4.58;100.00
18858;BME280;9558;50.178;8.370;2024-01-06T04:31:59;97113.44;;;4.59;100.00
18858;BME280;9558;50.178;8.370;2024-01-06T04:34:46;97115.03;;;4.60;100.00
18858;BME280;9558;50.178;8.370;2024-01-06T04:37:34;97109.91;;;4.60;100.00
18858;BME280;9558;50.178;8.370;2024-01-06T04:40:21;97110.84;;;4.67;100.00
18858;BME280;9558;50.178;8.370;2024-01-06T04:43:07;97121.09;;;4.67;100.00
18858;BME280;9558;50.178;8.370;2024-01-06T04:45:54;97106.34;;;4.70;100.00
18858;BME280;9558;50.178;8.370;2024-01-06T04:48:43;97109.88;;;4.68;100.00
18858;BME280;9558;50.178;8.370;2024-01-06T04:51:29;97114.03;;;4.70;100.00
18858;BME280;9558;50.178;8.370;2024-01-06T04:54:17;97105.56;;;4.69;100.00
18858;BME280;9558;50.178;8.370;2024-01-06T04:57:04;97103.78;;;4.70;100.00
18858;BME280;9558;50.178;8.370;2024-01-06T04:59:51;97101.22;;;4.70;100.00
18858;BME280;9558;50.178;8.370;2024-01-06T05:02:38;97098.66;;;4.70;100.00
18858;BME280;9558;50.178;8.370;2024-01-06T05:05:24;97109.22;;;4.75;100.00
18858;BME280;9558;50.178;8.370;2024-01-06T05:08:11;97112.41;;;4.77;100.00
18858;BME280;9558;50.178;8.370;2024-01-06T05:10:59;97104.72;;;4.77;100.00
18858;BME280;9558;50.178;8.370;2024-01-06T05:13:46;97109.84;;;4.77;100.00
18858;BME280;9558;50.178;8.370;2024-01-06T05:16:33;97115.31;;;4.74;100.00
18858;BME280;9558;50.178;8.370;2024-01-06T05:19:20;97109.41;;;4.73;100.00
18858;BME280;9558;50.178;8.370;2024-01-06T05:22:07;97113.72;;;4.73;100.00
18858;BME280;9558;50.178;8.370;2024-01-06T05:24:53;97123.63;;;4.76;100.00
18858;BME280;9558;50.178;8.370;2024-01-06T05:27:42;97121.88;;;4.76;100.00
18858;BME280;9558;50.178;8.370;2024-01-06T05:30:29;97121.72;;;4.78;100.00
18858;BME280;9558;50.178;8.370;2024-01-06T05:33:16;97118.19;;;4.79;100.00
18858;BME280;9558;50.178;8.370;2024-01-06T05:36:03;97121.72;;;4.78;100.00
18858;BME280;9558;50.178;8.370;2024-01-06T05:38:50;97117.53;;;4.77;100.00
18858;BME280;9558;50.178;8.370;2024-01-06T05:41:37;97114.47;;;4.81;100.00
18858;BME280;9558;50.178;8.370;2024-01-06T05:44:25;97123.16;;;4.80;100.00
18858;BME280;9558;50.178;8.370;2024-01-06T05:47:12;97119.47;;;4.83;100.00
18858;BME280;9558;50.178;8.370;2024-01-06T05:49:59;97131.47;;;4.82;100.00
18858;BME280;9558;50.178;8.370;2024-01-06T05:52:46;97131.13;;;4.85;100.00
18858;BME280;9558;50.178;8.370;2024-01-06T05:55:34;97126.81;;;4.86;100.00
18858;BME280;9558;50.178;8.370;2024-01-06T05:58:21;97138.03;;;4.85;100.00
18858;BME280;9558;50.178;8.370;2024-01-06T06:01:09;97145.41;;;4.88;100.00
18858;BME280;9558;50.178;8.370;2024-01-06T06:03:56;97149.06;;;4.85;100.00
18858;BME280;9558;50.178;8.370;2024-01-06T06:06:42;97138.03;;;4.85;100.00
18858;BME280;9558;50.178;8.370;2024-01-06T06:09:29;97151.63;;;4.85;100.00
18858;BME280;9558;50.178;8.370;2024-01-06T06:12:16;97154.03;;;4.87;100.00
18858;BME280;9558;50.178;8.370;2024-01-06T06:15:03;97160.16;;;4.86;100.00
18858;BME280;9558;50.178;8.370;2024-01-06T06:17:51;97155.03;;;4.86;100.00
18858;BME280;9558;50.178;8.370;2024-01-06T06:20:38;97146.84;;;4.91;100.00
18858;BME280;9558;50.178;8.370;2024-01-06T06:23:27;97155.31;;;4.91;100.00
18858;BME280;9558;50.178;8.370;2024-01-06T06:26:14;97155.31;;;4.91;100.00
18858;BME280;9558;50.178;8.370;2024-01-06T06:29:01;97158.69;;;4.92;100.00
18858;BME280;9558;50.178;8.370;2024-01-06T06:31:47;97164.94;;;4.89;100.00
18858;BME280;9558;50.178;8.370;2024-01-06T06:34:35;97158.22;;;4.88;100.00
18858;BME280;9558;50.178;8.370;2024-01-06T06:37:22;97168.78;;;4.85;100.00
18858;BME280;9558;50.178;8.370;2024-01-06T06:40:10;97168.78;;;4.85;100.00
18858;BME280;9558;50.178;8.370;2024-01-06T06:42:56;97175.03;;;4.82;100.00
18858;BME280;9558;50.178;8.370;2024-01-06T06:45:43;97179.38;;;4.82;100.00
18858;BME280;9558;50.178;8.370;2024-01-06T06:48:30;97184.84;;;4.79;100.00
18858;BME280;9558;50.178;8.370;2024-01-06T06:51:18;97177.78;;;4.81;100.00
18858;BME280;9558;50.178;8.370;2024-01-06T06:54:07;97186.41;;;4.80;100.00
18858;BME280;9558;50.178;8.370;2024-01-06T06:56:54;97189.63;;;4.82;100.00
18858;BME280;9558;50.178;8.370;2024-01-06T06:59:40;97203.91;;;4.84;100.00
18858;BME280;9558;50.178;8.370;2024-01-06T07:02:27;97216.88;;;4.83;100.00
18858;BME280;9558;50.178;8.370;2024-01-06T07:05:14;97226.47;;;4.81;100.00
18858;BME280;9558;50.178;8.370;2024-01-06T07:08:02;97221.00;;;4.84;100.00
18858;BME280;9558;50.178;8.370;2024-01-06T07:10:49;97228.72;;;4.84;100.00
18858;BME280;9558;50.178;8.370;2024-01-06T07:13:36;97231.59;;;4.81;100.00
18858;BME280;9558;50.178;8.370;2024-01-06T07:16:23;97223.44;;;4.77;100.00
18858;BME280;9558;50.178;8.370;2024-01-06T07:19:09;97231.94;;;4.78;100.00
18858;BME280;9558;50.178;8.370;2024-01-06T07:21:56;97236.09;;;4.79;100.00
18858;BME280;9558;50.178;8.370;2024-01-06T07:24:44;97236.72;;;4.81;100.00
18858;BME280;9558;50.178;8.370;2024-01-06T07:27:31;97239.28;;;4.81;100.00
18858;BME280;9558;50.178;8.370;2024-01-06T07:30:18;97251.31;;;4.80;100.00
18858;BME280;9558;50.178;8.370;2024-01-06T07:33:05;97246.03;;;4.82;100.00
18858;BME280;9558;50.178;8.370;2024-01-06T07:35:51;97247.94;;;4.80;100.00
18858;BME280;9558;50.178;8.370;2024-01-06T07:38:38;97254.66;;;4.81;100.00
18858;BME280;9558;50.178;8.370;2024-01-06T07:41:26;97253.56;;;4.83;100.00
18858;BME280;9558;50.178;8.370;2024-01-06T07:44:13;97254.34;;;4.84;100.00
18858;BME280;9558;50.178;8.370;2024-01-06T07:47:01;97258.50;;;4.85;100.00
18858;BME280;9558;50.178;8.370;2024-01-06T07:49:50;97261.88;;;4.85;100.00
18858;BME280;9558;50.178;8.370;2024-01-06T07:52:38;97269.09;;;4.90;100.00
18858;BME280;9558;50.178;8.370;2024-01-06T07:55:25;97263.16;;;4.90;100.00
18858;BME280;9558;50.178;8.370;2024-01-06T07:58:15;97277.41;;;4.92;100.00
18858;BME280;9558;50.178;8.370;2024-01-06T08:01:02;97279.97;;;4.92;100.00
18858;BME280;9558;50.178;8.370;2024-01-06T08:03:49;97294.41;;;4.93;100.00
18858;BME280;9558;50.178;8.370;2024-01-06T08:06:36;97300.00;;;4.97;100.00
18858;BME280;9558;50.178;8.370;2024-01-06T08:09:22;97293.91;;;4.98;100.00
18858;BME280;9558;50.178;8.370;2024-01-06T08:12:09;97304.81;;;5.00;100.00
18858;BME280;9558;50.178;8.370;2024-01-06T08:14:58;97301.13;;;5.02;100.00
18858;BME280;9558;50.178;8.370;2024-01-06T08:17:45;97308.34;;;4.99;100.00
18858;BME280;9558;50.178;8.370;2024-01-06T08:20:32;97299.66;;;5.00;100.00
18858;BME280;9558;50.178;8.370;2024-01-06T08:23:19;97310.09;;;5.07;100.00
18858;BME280;9558;50.178;8.370;2024-01-06T08:26:05;97306.56;;;5.08;100.00
18858;BME280;9558;50.178;8.370;2024-01-06T08:28:52;97308.31;;;5.07;100.00
18858;BME280;9558;50.178;8.370;2024-01-06T08:31:40;97317.16;;;5.05;100.00
18858;BME280;9558;50.178;8.370;2024-01-06T08:34:30;97316.19;;;5.06;100.00
18858;BME280;9558;50.178;8.370;2024-01-06T08:37:17;97318.59;;;5.07;100.00
18858;BME280;9558;50.178;8.370;2024-01-06T08:40:05;97321.97;;;5.08;100.00
18858;BME280;9558;50.178;8.370;2024-01-06T08:42:52;97329.50;;;5.09;100.00
18858;BME280;9558;50.178;8.370;2024-01-06T08:45:38;97334.13;;;5.14;100.00
18858;BME280;9558;50.178;8.370;2024-01-06T08:48:26;97332.22;;;5.16;100.00
18858;BME280;9558;50.178;8.370;2024-01-06T08:51:13;97346.47;;;5.18;100.00
18858;BME280;9558;50.178;8.370;2024-01-06T08:54:00;97341.50;;;5.17;100.00
18858;BME280;9558;50.178;8.370;2024-01-06T08:56:49;97340.38;;;5.19;100.00
18858;BME280;9558;50.178;8.370;2024-01-06T08:59:35;97344.41;;;5.22;100.00
18858;BME280;9558;50.178;8.370;2024-01-06T09:02:22;97344.06;;;5.25;100.00
18858;BME280;9558;50.178;8.370;2024-01-06T09:05:10;97337.50;;;5.31;100.00
18858;BME280;9558;50.178;8.370;2024-01-06T09:07:57;97334.75;;;5.32;100.00
18858;BME280;9558;50.178;8.370;2024-01-06T09:10:43;97344.84;;;5.34;100.00
18858;BME280;9558;50.178;8.370;2024-01-06T09:13:30;97351.75;;;5.33;100.00
18858;BME280;9558;50.178;8.370;2024-01-06T09:16:17;97351.75;;;5.33;100.00
18858;BME280;9558;50.178;8.370;2024-01-06T09:19:04;97352.88;;;5.39;100.00
18858;BME280;9558;50.178;8.370;2024-01-06T09:21:52;97352.56;;;5.42;100.00
18858;BME280;9558;50.178;8.370;2024-01-06T09:24:39;97354.00;;;5.45;100.00
18858;BME280;9558;50.178;8.370;2024-01-06T09:27:26;97360.56;;;5.47;100.00
18858;BME280;9558;50.178;8.370;2024-01-06T09:30:13;97361.19;;;5.49;100.00
18858;BME280;9558;50.178;8.370;2024-01-06T09:32:59;97366.00;;;5.52;100.00
18858;BME280;9558;50.178;8.370;2024-01-06T09:35:47;97364.88;;;5.55;100.00
18858;BME280;9558;50.178;8.370;2024-01-06T09:38:35;97368.06;;;5.57;100.00
18858;BME280;9558;50.178;8.370;2024-01-06T09:41:22;97368.06;;;5.57;100.00
18858;BME280;9558;50.178;8.370;2024-01-06T09:44:09;97373.69;;;5.61;100.00
18858;BME280;9558;50.178;8.370;2024-01-06T09:46:58;97376.91;;;5.63;100.00
18858;BME280;9558;50.178;8.370;2024-01-06T09:49:47;97376.09;;;5.62;100.00
18858;BME280;9558;50.178;8.370;2024-01-06T09:52:39;97379.00;;;5.67;100.00
18858;BME280;9558;50.178;8.370;2024-01-06T09:55:28;97388.94;;;5.70;100.00
18858;BME280;9558;50.178;8.370;2024-01-06T09:58:15;97385.38;;;5.80;100.00
18858;BME280;9558;50.178;8.370;2024-01-06T10:01:02;97388.09;;;5.86;100.00
18858;BME280;9558;50.178;8.370;2024-01-06T10:03:50;97389.81;;;5.94;100.00
18858;BME280;9558;50.178;8.370;2024-01-06T10:06:36;97395.78;;;5.95;100.00
18858;BME280;9558;50.178;8.370;2024-01-06T10:09:26;97401.41;;;5.98;100.00
18858;BME280;9558;50.178;8.370;2024-01-06T10:12:15;97406.19;;;6.01;100.00
18858;BME280;9558;50.178;8.370;2024-01-06T10:15:02;97404.28;;;6.03;100.00
18858;BME280;9558;50.178;8.370;2024-01-06T10:17:49;97412.63;;;6.05;100.00
18858;BME280;9558;50.178;8.370;2024-01-06T10:20:36;97408.31;;;6.06;100.00
18858;BME280;9558;50.178;8.370;2024-01-06T10:23:23;97407.97;;;6.09;100.00
18858;BME280;9558;50.178;8.370;2024-01-06T10:26:12;97407.63;;;6.12;100.00
18858;BME280;9558;50.178;8.370;2024-01-06T10:29:00;97407.28;;;6.15;100.00
18858;BME280;9558;50.178;8.370;2024-01-06T10:31:48;97402.94;;;6.16;100.00
18858;BME280;9558;50.178;8.370;2024-01-06T10:34:36;97412.91;;;6.19;100.00
18858;BME280;9558;50.178;8.370;2024-01-06T10:37:23;97408.75;;;6.18;100.00
18858;BME280;9558;50.178;8.370;2024-01-06T10:40:11;97413.38;;;6.22;100.00
18858;BME280;9558;50.178;8.370;2024-01-06T10:42:59;97407.44;;;6.22;100.00
18858;BME280;9558;50.178;8.370;2024-01-06T10:45:48;97420.13;;;6.23;100.00
18858;BME280;9558;50.178;8.370;2024-01-06T10:48:38;97424.47;;;6.23;100.00
18858;BME280;9558;50.178;8.370;2024-01-06T10:51:28;97416.09;;;6.21;100.00
18858;BME280;9558;50.178;8.370;2024-01-06T10:54:17;97419.31;;;6.23;100.00
18858;BME280;9558;50.178;8.370;2024-01-06T10:57:06;97424.94;;;6.27;100.00
18858;BME280;9558;50.178;8.370;2024-01-06T10:59:52;97425.72;;;6.27;100.00
18858;BME280;9558;50.178;8.370;2024-01-06T11:02:41;97415.44;;;6.27;100.00
18858;BME280;9558;50.178;8.370;2024-01-06T11:05:28;97405.97;;;6.28;100.00
18858;BME280;9558;50.178;8.370;2024-01-06T11:08:17;97410.31;;;6.27;100.00
18858;BME280;9558;50.178;8.370;2024-01-06T11:11:04;97409.16;;;6.30;100.00
18858;BME280;9558;50.178;8.370;2024-01-06T11:13:51;97401.28;;;6.31;100.00
18858;BME280;9558;50.178;8.370;2024-01-06T11:16:38;97397.16;;;6.30;100.00
18858;BME280;9558;50.178;8.370;2024-01-06T11:19:45;97388.16;;;6.26;100.00
18858;BME280;9558;50.178;8.370;2024-01-06T11:22:33;97393.31;;;6.26;100.00
18858;BME280;9558;50.178;8.370;2024-01-06T11:25:25;97384.94;;;6.24;100.00
18858;BME280;9558;50.178;8.370;2024-01-06T11:28:13;97395.56;;;6.21;100.00
18858;BME280;9558;50.178;8.370;2024-01-06T11:31:07;97392.38;;;6.19;100.00
18858;BME280;9558;50.178;8.370;2024-01-06T11:33:54;97392.38;;;6.19;100.00
18858;BME280;9558;50.178;8.370;2024-01-06T11:36:44;97394.59;;;6.22;100.00
18858;BME280;9558;50.178;8.370;2024-01-06T11:39:34;97393.78;;;6.21;100.00
18858;BME280;9558;50.178;8.370;2024-01-06T11:42:31;97386.56;;;6.25;100.00
18858;BME280;9558;50.178;8.370;2024-01-06T11:45:18;97388.63;;;6.30;100.00
18858;BME280;9558;50.178;8.370;2024-01-06T11:48:06;97387.47;;;6.32;100.00
18858;BME280;9558;50.178;8.370;2024-01-06T11:50:53;97384.56;;;6.35;100.00
18858;BME280;9558;50.178;8.370;2024-01-06T11:53:41;97392.94;;;6.37;100.00
18858;BME280;9558;50.178;8.370;2024-01-06T11:56:28;97392.75;;;6.39;100.00
18858;BME280;9558;50.178;8.370;2024-01-06T11:59:14;97385.69;;;6.41;100.00
18858;BME280;9558;50.178;8.370;2024-01-06T12:02:01;97381.97;;;6.44;100.00
18858;BME280;9558;50.178;8.370;2024-01-06T12:04:48;97391.47;;;6.43;100.00
18858;BME280;9558;50.178;8.370;2024-01-06T12:07:36;97389.69;;;6.44;100.00
18858;BME280;9558;50.178;8.370;2024-01-06T12:10:25;97389.69;;;6.44;100.00
18858;BME280;9558;50.178;8.370;2024-01-06T12:13:12;97378.75;;;6.42;100.00
18858;BME280;9558;50.178;8.370;2024-01-06T12:16:00;97382.94;;;6.43;100.00
18858;BME280;9558;50.178;8.370;2024-01-06T12:18:46;97385.84;;;6.39;100.00
18858;BME280;9558;50.178;8.370;2024-01-06T12:21:33;97384.88;;;6.40;100.00
18858;BME280;9558;50.178;8.370;2024-01-06T12:24:23;97386.81;;;6.38;100.00
18858;BME280;9558;50.178;8.370;2024-01-06T12:27:11;97386.81;;;6.38;100.00
18858;BME280;9558;50.178;8.370;2024-01-06T12:29:58;97389.38;;;6.38;100.00
18858;BME280;9558;50.178;8.370;2024-01-06T12:32:47;97385.22;;;6.37;100.00
18858;BME280;9558;50.178;8.370;2024-01-06T12:35:37;97389.38;;;6.38;100.00
18858;BME280;9558;50.178;8.370;2024-01-06T12:38:24;97391.94;;;6.38;100.00
18858;BME280;9558;50.178;8.370;2024-01-06T12:41:13;97388.41;;;6.39;100.00
18858;BME280;9558;50.178;8.370;2024-01-06T12:44:01;97384.88;;;6.40;100.00
18858;BME280;9558;50.178;8.370;2024-01-06T12:46:48;97395.97;;;6.41;100.00
18858;BME280;9558;50.178;8.370;2024-01-06T12:49:35;97389.03;;;6.42;100.00
18858;BME280;9558;50.178;8.370;2024-01-06T12:52:22;97386.94;;;6.45;100.00
18858;BME280;9558;50.178;8.370;2024-01-06T12:55:09;97389.69;;;6.44;100.00
18858;BME280;9558;50.178;8.370;2024-01-06T12:57:56;97398.69;;;6.39;100.00
18858;BME280;9558;50.178;8.370;2024-01-06T13:00:47;97399.38;;;6.33;100.00
18858;BME280;9558;50.178;8.370;2024-01-06T13:03:34;97410.94;;;6.29;100.00
18858;BME280;9558;50.178;8.370;2024-01-06T13:06:21;97407.78;;;6.19;100.00
18858;BME280;9558;50.178;8.370;2024-01-06T13:09:08;97408.75;;;6.10;100.00
18858;BME280;9558;50.178;8.370;2024-01-06T13:11:58;97417.91;;;6.04;100.00
18858;BME280;9558;50.178;8.370;2024-01-06T13:14:45;97415.03;;;5.91;100.00
18858;BME280;9558;50.178;8.370;2024-01-06T13:17:34;97423.41;;;5.76;100.00
18858;BME280;9558;50.178;8.370;2024-01-06T13:20:21;97416.50;;;5.68;100.00
18858;BME280;9558;50.178;8.370;2024-01-06T13:23:07;97429.69;;;5.65;100.00
18858;BME280;9558;50.178;8.370;2024-01-06T13:25:54;97425.19;;;5.59;100.00
18858;BME280;9558;50.178;8.370;2024-01-06T13:28:42;97429.03;;;5.55;100.00
18858;BME280;9558;50.178;8.370;2024-01-06T13:31:29;97440.91;;;5.48;100.00
18858;BME280;9558;50.178;8.370;2024-01-06T13:34:18;97434.50;;;5.44;100.00
18858;BME280;9558;50.178;8.370;2024-01-06T13:37:05;97431.31;;;5.42;100.00
18858;BME280;9558;50.178;8.370;2024-01-06T13:39:52;97437.38;;;5.41;100.00
18858;BME280;9558;50.178;8.370;2024-01-06T13:42:39;97438.03;;;5.43;100.00
18858;BME280;9558;50.178;8.370;2024-01-06T13:45:26;97443.16;;;5.43;100.00
18858;BME280;9558;50.178;8.370;2024-01-06T13:48:13;97438.03;;;5.43;100.00
18858;BME280;9558;50.178;8.370;2024-01-06T13:51:01;97446.53;;;5.35;100.00
18858;BME280;9558;50.178;8.370;2024-01-06T13:53:48;97449.25;;;5.33;100.00
18858;BME280;9558;50.178;8.370;2024-01-06T13:56:35;97455.31;;;5.24;100.00
18858;BME280;9558;50.178;8.370;2024-01-06T13:59:22;97452.44;;;5.19;100.00
18858;BME280;9558;50.178;8.370;2024-01-06T14:02:09;97456.13;;;5.16;100.00
18858;BME280;9558;50.178;8.370;2024-01-06T14:04:56;97461.41;;;5.15;100.00
18858;BME280;9558;50.178;8.370;2024-01-06T14:07:44;97466.53;;;5.15;100.00
18858;BME280;9558;50.178;8.370;2024-01-06T14:10:34;97470.56;;;5.17;100.00
18858;BME280;9558;50.178;8.370;2024-01-06T14:13:20;97464.63;;;5.17;100.00
18858;BME280;9558;50.178;8.370;2024-01-06T14:16:07;97469.09;;;5.15;100.00
18858;BME280;9558;50.178;8.370;2024-01-06T14:18:54;97468.44;;;5.13;100.00
18858;BME280;9558;50.178;8.370;2024-01-06T14:21:41;97473.75;;;5.11;100.00
18858;BME280;9558;50.178;8.370;2024-01-06T14:24:29;97480.63;;;5.11;100.00
18858;BME280;9558;50.178;8.370;2024-01-06T14:27:16;97487.53;;;5.10;100.00
18858;BME280;9558;50.178;8.370;2024-01-06T14:30:04;97481.59;;;5.10;100.00
18858;BME280;9558;50.178;8.370;2024-01-06T14:32:52;97488.97;;;5.13;100.00
18858;BME280;9558;50.178;8.370;2024-01-06T14:35:39;97484.66;;;5.13;100.00
18858;BME280;9558;50.178;8.370;2024-01-06T14:38:27;97490.56;;;5.14;100.00
18858;BME280;9558;50.178;8.370;2024-01-06T14:41:15;97495.38;;;5.17;100.00
18858;BME280;9558;50.178;8.370;2024-01-06T14:44:02;97496.66;;;5.13;100.00
18858;BME280;9558;50.178;8.370;2024-01-06T14:46:48;97501.16;;;5.11;100.00
18858;BME280;9558;50.178;8.370;2024-01-06T14:49:36;97498.91;;;5.08;100.00
18858;BME280;9558;50.178;8.370;2024-01-06T14:52:22;97500.03;;;5.05;100.00
18858;BME280;9558;50.178;8.370;2024-01-06T14:55:09;97505.16;;;5.05;100.00
18858;BME280;9558;50.178;8.370;2024-01-06T14:57:58;97506.72;;;4.98;100.00